Time;durP1;ratioP1;P1;durP2;ratioP2;P2;SDS_P1;SDS_P2;PMS_P1;PMS_P2;Temp;Humidity;BMP_temperature;BMP_pressure;BME280_temperature;BME280_humidity;BME280_pressure;Samples;Min_cycle;Max_cycle;Signal;HPM_P1;HPM_P2
2022/05/07 00:01:56;;;;;;;14.57;7.22;;;;;;;16.02;53.53;101778.03;5107516;28;20078;-69
2022/05/07 00:04:22;;;;;;;11.50;6.82;;;;;;;16.24;53.26;101769.72;5108467;27;20765;-69
2022/05/07 00:06:48;;;;;;;9.93;7.13;;;;;;;16.28;53.55;101769.44;5107675;28;20059;-69
2022/05/07 00:09:15;;;;;;;12.27;6.82;;;;;;;16.29;53.06;101768.50;5107723;27;20069;-69
2022/05/07 00:11:41;;;;;;;12.85;6.97;;;;;;;16.10;53.46;101764.38;5108698;28;20047;-69
2022/05/07 00:14:08;;;;;;;9.63;6.75;;;;;;;16.23;53.40;101766.19;5107798;27;20071;-69
2022/05/07 00:19:19;;;;;;;11.25;6.43;;;;;;;16.36;52.80;101758.41;5107150;27;20078;-69
2022/05/07 00:21:45;;;;;;;10.30;6.47;;;;;;;16.20;53.48;101765.53;5107179;27;20495;-69
2022/05/07 00:24:12;;;;;;;12.07;7.07;;;;;;;16.20;53.70;101766.38;5108055;28;20104;-69
2022/05/07 00:26:38;;;;;;;9.20;6.60;;;;;;;16.22;53.43;101767.13;5107871;27;20132;-69
2022/05/07 00:29:04;;;;;;;8.65;6.45;;;;;;;15.23;56.66;101763.97;5105271;27;20483;-69
2022/05/07 00:31:31;;;;;;;10.73;6.85;;;;;;;14.71;58.31;101754.53;5106764;28;20047;-69
2022/05/07 00:33:57;;;;;;;12.38;7.65;;;;;;;14.94;57.68;101757.66;5106955;28;20059;-68
2022/05/07 00:36:25;;;;;;;9.85;6.75;;;;;;;14.46;59.49;101755.81;5108130;27;20051;-68
2022/05/07 00:38:52;;;;;;;11.30;6.72;;;;;;;14.19;60.23;101759.81;5107670;27;20496;-68
2022/05/07 00:41:18;;;;;;;12.52;7.25;;;;;;;14.23;60.52;101753.44;5108369;27;20051;-69
2022/05/07 00:43:45;;;;;;;12.48;6.50;;;;;;;14.34;60.01;101759.06;5109077;27;20592;-70
2022/05/07 00:46:12;;;;;;;9.68;6.60;;;;;;;14.25;60.41;101758.66;5109526;28;20067;-70
2022/05/07 00:48:39;;;;;;;11.68;7.13;;;;;;;14.39;59.92;101753.56;5109025;27;20067;-69
2022/05/07 00:53:51;;;;;;;9.85;6.78;;;;;;;14.48;59.09;101755.75;5108837;27;20055;-69
2022/05/07 00:56:18;;;;;;;9.85;6.43;;;;;;;14.35;59.37;101750.22;5105401;27;20453;-70
2022/05/07 00:58:44;;;;;;;11.55;6.70;;;;;;;14.41;58.92;101749.91;5108707;27;20116;-69
2022/05/07 01:01:10;;;;;;;12.35;6.95;;;;;;;14.45;59.04;101743.53;5108841;28;20047;-69
2022/05/07 01:03:38;;;;;;;12.38;6.85;;;;;;;14.55;58.87;101750.06;5104794;28;20565;-69
2022/05/07 01:06:04;;;;;;;9.23;6.15;;;;;;;14.55;58.70;101754.47;5101904;28;20063;-69
2022/05/07 01:08:32;;;;;;;10.40;6.50;;;;;;;14.44;58.41;101751.53;5109805;27;20096;-69
2022/05/07 01:11:00;;;;;;;11.27;7.30;;;;;;;14.24;59.33;101739.34;5108352;27;20381;-69
2022/05/07 01:13:27;;;;;;;16.08;6.97;;;;;;;13.70;60.82;101745.59;5109200;27;20048;-69
2022/05/07 01:15:56;;;;;;;12.98;6.68;;;;;;;13.42;62.72;101748.69;5109145;28;20043;-69
2022/05/07 01:18:24;;;;;;;10.60;6.80;;;;;;;13.39;62.75;101750.59;5109716;27;20048;-69
2022/05/07 01:20:51;;;;;;;14.52;6.93;;;;;;;13.44;62.56;101746.84;5101976;27;20495;-69
2022/05/07 01:23:18;;;;;;;11.77;6.38;;;;;;;13.43;61.65;101745.13;5109311;28;20525;-69
2022/05/07 01:25:45;;;;;;;9.35;6.40;;;;;;;13.20;62.71;101740.06;5108971;27;20128;-69
2022/05/07 01:28:11;;;;;;;9.88;6.40;;;;;;;12.68;64.82;101731.88;5108900;27;20071;-69
2022/05/07 01:30:38;;;;;;;14.13;7.38;;;;;;;12.29;66.56;101730.16;5108270;27;20124;-69
2022/05/07 01:33:04;;;;;;;13.02;7.03;;;;;;;12.43;66.24;101730.41;5108963;28;20047;-69
2022/05/07 01:35:31;;;;;;;9.85;6.72;;;;;;;12.51;65.77;101734.44;5108868;27;20124;-69
2022/05/07 01:37:57;;;;;;;11.23;7.07;;;;;;;12.73;64.68;101726.44;5109016;28;20048;-69
2022/05/07 01:40:25;;;;;;;10.35;7.15;;;;;;;12.42;64.31;101726.91;5116665;27;20043;-69
2022/05/07 01:42:51;;;;;;;18.25;7.50;;;;;;;12.77;64.59;101729.78;5121805;27;20035;-69
2022/05/07 01:45:17;;;;;;;9.82;6.95;;;;;;;13.00;63.59;101722.56;5116581;27;20044;-69
2022/05/07 01:50:27;;;;;;;10.45;7.07;;;;;;;12.58;65.20;101730.59;5106676;27;20465;-69
2022/05/07 01:52:54;;;;;;;12.27;7.20;;;;;;;12.87;63.60;101731.06;5105924;28;20113;-69
2022/05/07 01:55:20;;;;;;;13.82;7.53;;;;;;;12.59;64.86;101727.06;5101848;27;20047;-69
2022/05/07 01:57:48;;;;;;;11.80;7.32;;;;;;;12.86;64.13;101737.28;5106197;27;20075;-69
2022/05/07 02:00:14;;;;;;;11.80;7.60;;;;;;;12.95;64.10;101728.94;5106788;27;20069;-69
2022/05/07 02:02:41;;;;;;;16.45;8.20;;;;;;;13.16;63.09;101723.56;5108851;27;20075;-69
2022/05/07 02:05:08;;;;;;;12.27;7.20;;;;;;;13.65;61.62;101732.63;5108947;28;20044;-69
2022/05/07 02:07:34;;;;;;;11.63;7.13;;;;;;;13.55;61.95;101730.50;5108901;28;20115;-69
2022/05/07 02:10:00;;;;;;;14.98;7.60;;;;;;;13.60;61.55;101731.13;5108110;28;20063;-69
2022/05/07 02:12:27;;;;;;;13.40;7.72;;;;;;;13.37;62.39;101732.25;5107892;28;20063;-69
2022/05/07 02:14:54;;;;;;;11.13;6.95;;;;;;;13.41;61.22;101727.69;5109232;28;20120;-70
2022/05/07 02:17:21;;;;;;;12.75;7.07;;;;;;;13.20;62.17;101728.69;5107499;28;20036;-70
2022/05/07 02:19:47;;;;;;;9.73;7.13;;;;;;;12.95;62.65;101728.94;5103101;27;20071;-70
2022/05/07 02:22:13;;;;;;;13.00;7.68;;;;;;;12.76;63.87;101734.19;5108391;27;20559;-70
2022/05/07 02:24:39;;;;;;;14.38;7.95;;;;;;;12.37;65.51;101736.81;5108015;27;20519;-69
2022/05/07 02:27:06;;;;;;;13.27;7.43;;;;;;;11.89;67.93;101733.63;5107980;27;20084;-69
2022/05/07 02:29:33;;;;;;;12.85;6.97;;;;;;;11.87;67.74;101731.03;5107683;27;20043;-69
2022/05/07 02:32:07;;;;;;;13.40;8.02;;;;;;;11.78;68.35;101728.81;5108605;28;20448;-69
2022/05/07 02:34:34;;;;;;;13.88;8.23;;;;;;;11.67;68.38;101729.22;5108170;28;20048;-69
2022/05/07 02:37:01;;;;;;;12.10;7.65;;;;;;;12.06;67.28;101725.88;5108747;28;20117;-69
2022/05/07 02:39:28;;;;;;;11.07;6.80;;;;;;;12.07;65.97;101723.19;5108398;28;20052;-69
2022/05/07 02:44:39;;;;;;;14.10;7.68;;;;;;;12.38;65.89;101732.41;5098932;28;20056;-70
2022/05/07 02:47:07;;;;;;;17.38;7.45;;;;;;;12.26;64.17;101728.53;5119199;27;20133;-69
2022/05/07 02:49:33;;;;;;;11.95;7.10;;;;;;;12.23;63.83;101744.44;5105594;27;20075;-70
2022/05/07 02:52:00;;;;;;;13.63;7.43;;;;;;;12.19;64.77;101732.34;5108843;28;20080;-70
2022/05/07 02:54:26;;;;;;;13.65;8.00;;;;;;;12.06;66.48;101737.25;5110669;27;20040;-69
2022/05/07 02:56:53;;;;;;;11.32;7.53;;;;;;;11.21;69.61;101735.41;5112316;27;20044;-69
2022/05/07 02:59:19;;;;;;;15.55;7.55;;;;;;;10.90;72.19;101739.28;5110840;27;20553;-69
2022/05/07 03:01:45;;;;;;;15.35;8.20;;;;;;;11.05;71.36;101734.28;5110215;28;20055;-69
2022/05/07 03:04:13;;;;;;;13.82;7.78;;;;;;;11.58;69.10;101734.81;5127260;27;20075;-69
2022/05/07 03:06:40;;;;;;;13.45;8.40;;;;;;;12.06;67.36;101728.50;5106164;28;20582;-69
2022/05/07 03:09:07;;;;;;;12.52;7.40;;;;;;;12.19;66.41;101733.16;5096022;27;20093;-69
2022/05/07 03:11:34;;;;;;;13.32;7.68;;;;;;;12.13;65.77;101732.56;5112169;28;20132;-69
2022/05/07 03:14:01;;;;;;;11.73;7.45;;;;;;;12.00;66.04;101739.28;5111266;27;20582;-69
2022/05/07 03:16:28;;;;;;;11.80;7.20;;;;;;;11.91;65.65;101737.88;5112117;28;20082;-69
2022/05/07 03:18:54;;;;;;;12.57;8.00;;;;;;;11.55;67.64;101740.22;5107490;27;20044;-69
2022/05/07 03:21:22;;;;;;;12.73;7.82;;;;;;;11.06;69.83;101733.38;5111939;28;20497;-69
2022/05/07 03:23:48;;;;;;;15.60;7.60;;;;;;;11.00;70.64;101735.38;5111718;28;20069;-69
2022/05/07 03:26:16;;;;;;;14.77;8.15;;;;;;;11.31;69.72;101741.16;5110960;28;20567;-69
2022/05/07 03:28:42;;;;;;;12.73;7.57;;;;;;;11.64;67.68;101750.34;5110347;27;20055;-69
2022/05/07 03:31:09;;;;;;;11.50;7.75;;;;;;;10.96;68.83;101739.03;5111435;27;20092;-69
2022/05/07 03:33:35;;;;;;;14.93;8.20;;;;;;;10.43;72.79;101743.59;5111922;27;20503;-69
2022/05/07 03:36:01;;;;;;;14.63;8.73;;;;;;;10.35;74.31;101740.41;5099993;27;20040;-69
2022/05/07 03:38:29;;;;;;;13.65;8.07;;;;;;;10.79;72.67;101741.44;5110201;27;20039;-69
2022/05/07 03:40:56;;;;;;;20.13;8.02;;;;;;;10.88;71.34;101741.06;5110648;27;20105;-69
2022/05/07 03:43:22;;;;;;;12.18;7.22;;;;;;;10.63;70.84;101738.50;5111450;27;20043;-69
2022/05/07 03:45:48;;;;;;;19.35;7.68;;;;;;;10.31;72.13;101733.53;5111572;28;20604;-69
2022/05/07 03:48:15;;;;;;;13.07;8.60;;;;;;;10.05;74.69;101747.50;5109932;27;20541;-69
2022/05/07 03:50:41;;;;;;;12.23;7.60;;;;;;;10.03;75.29;101742.31;5109976;27;20070;-69
2022/05/07 03:55:52;;;;;;;14.57;7.80;;;;;;;10.67;71.49;101738.34;5111024;27;20100;-69
2022/05/07 03:58:19;;;;;;;11.57;7.55;;;;;;;10.68;71.10;101731.31;5111188;27;20067;-70
2022/05/07 04:00:45;;;;;;;18.80;8.60;;;;;;;10.80;70.82;101738.72;5109685;27;20112;-70
2022/05/07 04:03:12;;;;;;;17.05;8.10;;;;;;;10.89;70.98;101743.66;5111231;28;20044;-70
2022/05/07 04:05:39;;;;;;;13.15;8.27;;;;;;;10.61;71.82;101735.06;5109107;27;20096;-70
2022/05/07 04:08:07;;;;;;;12.55;8.00;;;;;;;10.06;75.32;101738.72;5107613;27;20059;-69
2022/05/07 04:10:33;;;;;;;12.13;7.80;;;;;;;10.21;75.31;101739.09;5096675;27;20126;-69
2022/05/07 04:13:01;;;;;;;13.52;8.02;;;;;;;10.60;74.20;101736.84;5094765;27;20047;-69
2022/05/07 04:15:27;;;;;;;14.02;7.90;;;;;;;11.04;72.53;101742.22;5110056;28;20093;-69
2022/05/07 04:17:54;;;;;;;14.90;8.50;;;;;;;11.35;71.24;101741.88;5109216;27;20050;-69
2022/05/07 04:20:20;;;;;;;13.57;8.00;;;;;;;11.28;71.52;101743.03;5104030;27;20044;-69
2022/05/07 04:22:47;;;;;;;12.18;7.35;;;;;;;11.05;72.02;101738.66;5109391;27;20638;-69
2022/05/07 04:25:13;;;;;;;11.55;7.57;;;;;;;10.69;73.29;101741.75;5109343;27;20063;-69
2022/05/07 04:27:40;;;;;;;15.68;8.43;;;;;;;10.67;74.14;101740.97;5109159;28;20051;-69
2022/05/07 04:30:09;;;;;;;11.20;7.40;;;;;;;11.33;72.58;101741.97;5107551;27;20071;-69
2022/05/07 04:32:35;;;;;;;13.15;8.15;;;;;;;12.02;69.58;101743.56;5110700;27;20047;-69
2022/05/07 04:35:02;;;;;;;12.65;7.40;;;;;;;12.18;68.63;101736.75;5101393;27;20056;-69
2022/05/07 04:37:29;;;;;;;12.07;8.43;;;;;;;12.32;68.47;101744.03;5106182;28;20662;-69
2022/05/07 04:39:55;;;;;;;12.35;8.00;;;;;;;12.26;68.79;101739.03;5108167;27;20040;-70
2022/05/07 04:42:21;;;;;;;12.88;7.70;;;;;;;12.04;69.58;101744.34;5108861;27;20063;-69
2022/05/07 04:44:48;;;;;;;12.20;7.40;;;;;;;12.53;67.91;101736.97;5108927;28;20136;-69
2022/05/07 04:47:15;;;;;;;15.27;7.75;;;;;;;12.99;66.64;101751.56;5109266;27;20071;-69
2022/05/07 04:49:42;;;;;;;15.55;7.80;;;;;;;13.51;64.48;101752.66;5105447;27;20067;-69
2022/05/07 04:52:08;;;;;;;16.00;7.15;;;;;;;14.08;63.30;101754.22;5109768;28;20047;-69
2022/05/07 04:54:35;;;;;;;10.80;7.50;;;;;;;13.99;62.63;101763.47;5101191;28;20040;-69
2022/05/07 04:57:01;;;;;;;10.70;7.35;;;;;;;13.75;63.22;101753.25;5107049;28;20044;-69
2022/05/07 04:59:28;;;;;;;11.07;7.57;;;;;;;13.04;66.43;101750.41;5108843;27;20040;-69
2022/05/07 05:01:54;;;;;;;12.43;7.25;;;;;;;13.31;65.42;101758.00;5107569;27;20067;-69
2022/05/07 05:04:22;;;;;;;17.00;7.50;;;;;;;13.41;64.42;101754.03;5100015;28;20622;-69
2022/05/07 05:06:48;;;;;;;8.95;6.80;;;;;;;14.05;63.10;101759.66;5094730;28;20048;-69
2022/05/07 05:09:15;;;;;;;11.55;7.70;;;;;;;14.02;63.93;101757.16;5098018;27;20059;-69
2022/05/07 05:11:42;;;;;;;10.00;7.72;;;;;;;14.58;62.06;101756.97;5107521;27;20047;-69
2022/05/07 05:16:49;;;;;;;10.55;6.72;;;;;;;13.76;63.59;101757.59;5105571;27;20046;-69
2022/05/07 05:19:15;;;;;;;17.70;6.70;;;;;;;13.94;62.70;101762.81;5107035;27;20051;-69
2022/05/07 05:21:43;;;;;;;11.10;6.60;;;;;;;14.03;62.35;101758.88;5109529;28;20067;-69
2022/05/07 05:24:10;;;;;;;12.73;7.10;;;;;;;14.77;60.83;101751.56;5102476;27;20048;-68
2022/05/07 05:26:36;;;;;;;9.80;6.85;;;;;;;15.22;59.63;101757.03;5108291;28;20047;-69
2022/05/07 05:29:03;;;;;;;12.93;7.57;;;;;;;14.96;60.27;101757.56;5114605;27;20076;-70
2022/05/07 05:31:30;;;;;;;9.50;6.63;;;;;;;15.94;59.01;101753.81;5118220;28;20055;-68
2022/05/07 05:33:57;;;;;;;11.00;7.07;;;;;;;15.52;58.48;101752.69;5113277;28;20048;-69
2022/05/07 05:36:24;;;;;;;8.15;6.95;;;;;;;15.60;58.06;101754.91;5112854;28;20054;-68
2022/05/07 05:38:51;;;;;;;10.15;6.90;;;;;;;15.99;56.37;101747.34;5106481;28;20043;-68
2022/05/07 05:41:17;;;;;;;13.65;7.15;;;;;;;15.70;59.68;101749.97;5107302;27;20066;-68
2022/05/07 05:43:44;;;;;;;15.57;7.00;;;;;;;15.11;60.19;101752.28;5108513;28;20073;-68
2022/05/07 05:46:11;;;;;;;8.50;6.45;;;;;;;15.41;60.66;101751.56;5107558;28;20040;-69
2022/05/07 05:48:37;;;;;;;16.30;7.60;;;;;;;15.75;61.10;101748.75;5103140;27;20449;-68
2022/05/07 05:51:04;;;;;;;13.55;6.53;;;;;;;16.63;58.13;101748.00;5101982;27;20089;-68
2022/05/07 05:53:31;;;;;;;12.27;7.38;;;;;;;16.61;58.08;101760.44;5106926;28;20518;-69
2022/05/07 05:56:00;;;;;;;8.32;6.28;;;;;;;16.94;57.22;101772.50;5092568;28;20051;-69
2022/05/07 05:58:32;;;;;;;11.35;6.80;;;;;;;17.39;56.26;101765.25;5103376;28;20097;-69
2022/05/07 06:00:59;;;;;;;9.85;6.70;;;;;;;18.30;53.24;101767.19;5091756;28;20483;-69
2022/05/07 06:03:25;;;;;;;8.85;6.20;;;;;;;18.65;51.61;101764.81;5103596;28;20462;-69
2022/05/07 06:05:51;;;;;;;8.65;6.50;;;;;;;19.38;50.65;101760.44;5088938;28;20124;-69
2022/05/07 06:08:18;;;;;;;8.05;6.68;;;;;;;19.52;49.45;101765.66;5098250;27;20580;-69
2022/05/07 06:10:44;;;;;;;9.27;6.28;;;;;;;19.88;49.01;101776.25;5102634;27;20486;-69
2022/05/07 06:13:12;;;;;;;10.18;6.18;;;;;;;19.54;48.92;101770.88;5096413;28;20044;-69
2022/05/07 06:15:38;;;;;;;11.20;6.30;;;;;;;19.84;49.61;101776.59;5103359;27;20499;-69
2022/05/07 06:18:05;;;;;;;9.02;6.13;;;;;;;19.91;49.52;101770.72;5109022;27;20047;-68
2022/05/07 06:20:32;;;;;;;9.68;6.30;;;;;;;20.17;48.12;101771.41;5101369;27;20048;-68
2022/05/07 06:22:59;;;;;;;14.00;7.65;;;;;;;21.10;45.41;101767.69;5094974;27;20048;-69
2022/05/07 06:28:09;;;;;;;7.43;5.63;;;;;;;21.01;46.38;101776.44;5109308;28;20050;-69
2022/05/07 06:30:36;;;;;;;8.00;5.72;;;;;;;20.95;45.85;101773.41;5112219;28;20047;-69
2022/05/07 06:33:04;;;;;;;8.63;5.75;;;;;;;20.84;46.81;101771.59;5114024;28;20384;-69
2022/05/07 06:35:30;;;;;;;8.30;5.88;;;;;;;20.45;47.35;101764.84;5113003;27;20044;-69
2022/05/07 06:37:56;;;;;;;8.05;5.97;;;;;;;19.86;50.60;101772.84;5114710;27;20047;-69
2022/05/07 06:40:23;;;;;;;8.00;5.65;;;;;;;20.34;48.15;101776.34;5111952;27;20163;-69
2022/05/07 06:42:50;;;;;;;9.65;5.80;;;;;;;20.46;47.92;101777.22;5112338;27;20067;-69
2022/05/07 06:45:16;;;;;;;8.60;6.05;;;;;;;19.90;50.28;101789.44;5112962;27;20035;-69
2022/05/07 06:47:44;;;;;;;7.30;5.78;;;;;;;20.45;49.30;101780.00;5112814;27;20495;-69
2022/05/07 06:50:10;;;;;;;9.20;6.50;;;;;;;20.59;48.83;101779.78;5110495;27;20047;-69
2022/05/07 06:52:44;;;;;;;8.13;5.47;;;;;;;20.94;47.39;101772.56;5109580;27;20461;-69
2022/05/07 06:55:13;;;;;;;9.50;6.15;;;;;;;20.35;48.62;101780.72;5107745;27;20088;-69
2022/05/07 06:57:39;;;;;;;10.43;6.18;;;;;;;20.24;49.93;101785.97;5112654;27;20043;-69
2022/05/07 07:00:06;;;;;;;14.63;5.80;;;;;;;20.33;50.08;101787.09;5111241;27;20096;-69
2022/05/07 07:02:34;;;;;;;9.95;5.72;;;;;;;19.79;50.74;101782.25;5112027;27;20051;-68
2022/05/07 07:05:02;;;;;;;10.32;5.43;;;;;;;19.86;49.22;101794.16;5112587;27;20092;-68
2022/05/07 07:07:28;;;;;;;11.98;6.18;;;;;;;20.60;48.19;101782.34;5112320;27;20407;-69
2022/05/07 07:09:55;;;;;;;7.82;6.45;;;;;;;19.75;48.87;101786.09;5112038;27;20039;-69
2022/05/07 07:12:21;;;;;;;8.75;5.55;;;;;;;20.11;48.70;101787.84;5111689;27;20047;-69
2022/05/07 07:14:48;;;;;;;14.68;5.50;;;;;;;20.35;48.40;101782.53;5112232;27;20491;-69
2022/05/07 07:17:16;;;;;;;7.72;5.10;;;;;;;21.05;43.52;101780.56;5109813;27;20039;-69
2022/05/07 07:19:42;;;;;;;8.43;5.35;;;;;;;21.56;42.09;101780.03;5111680;27;20511;-69
2022/05/07 07:22:10;;;;;;;12.38;5.88;;;;;;;21.60;41.38;101778.81;5112473;27;20065;-69
2022/05/07 07:24:36;;;;;;;8.48;5.72;;;;;;;21.44;41.67;101781.88;5112810;27;20044;-69
2022/05/07 07:27:04;;;;;;;8.65;5.43;;;;;;;21.58;40.45;101784.28;5112423;28;20402;-69
2022/05/07 07:29:30;;;;;;;10.70;5.72;;;;;;;21.54;41.79;101784.66;5111354;27;20092;-69
2022/05/07 07:31:57;;;;;;;9.45;5.70;;;;;;;21.35;40.75;101779.97;5112991;27;20059;-69
2022/05/07 07:34:23;;;;;;;10.95;5.47;;;;;;;21.36;41.29;101774.50;5111526;27;20097;-69
2022/05/07 07:36:50;;;;;;;16.10;5.90;;;;;;;21.41;41.56;101770.59;5111625;28;20043;-69
2022/05/07 07:39:19;;;;;;;16.75;5.47;;;;;;;22.35;39.64;101776.13;5110636;27;20506;-69
2022/05/07 07:41:46;;;;;;;11.00;6.03;;;;;;;22.67;42.59;101771.56;5111496;28;20468;-69
2022/05/07 07:44:12;;;;;;;9.82;6.07;;;;;;;22.54;43.15;101770.94;5111811;28;20044;-69
2022/05/07 07:49:23;;;;;;;8.52;5.57;;;;;;;23.64;38.67;101765.63;5110575;27;20050;-70
2022/05/07 07:51:50;;;;;;;8.05;5.72;;;;;;;23.77;39.94;101780.44;5110873;28;20446;-70
2022/05/07 07:54:17;;;;;;;9.13;5.93;;;;;;;24.03;40.83;101771.84;5112085;28;20051;-69
2022/05/07 07:56:44;;;;;;;10.05;5.43;;;;;;;24.75;39.85;101771.34;5110577;27;20052;-69
2022/05/07 07:59:10;;;;;;;10.10;5.43;;;;;;;25.67;36.50;101770.38;5110279;27;20044;-69
2022/05/07 08:01:37;;;;;;;10.98;5.68;;;;;;;26.34;35.37;101769.00;5110507;27;20120;-69
2022/05/07 08:04:04;;;;;;;10.50;5.70;;;;;;;26.56;36.12;101769.34;5111092;27;20535;-69
2022/05/07 08:06:30;;;;;;;9.43;5.25;;;;;;;26.61;35.42;101785.00;5110091;27;20127;-69
2022/05/07 08:11:46;;;;;;;11.38;5.25;;;;;;;27.27;35.46;101779.81;5110031;27;20074;-69
2022/05/07 08:14:14;;;;;;;8.52;5.38;;;;;;;27.54;33.09;101784.16;5110742;27;20054;-69
2022/05/07 08:16:41;;;;;;;9.30;5.28;;;;;;;27.26;35.12;101780.00;5110350;28;20491;-69
2022/05/07 08:19:07;;;;;;;15.05;5.30;;;;;;;27.72;33.72;101779.47;5106947;28;20549;-69
2022/05/07 08:21:34;;;;;;;11.80;5.45;;;;;;;27.90;33.76;101788.25;5108494;27;20069;-69
2022/05/07 08:24:01;;;;;;;11.13;5.78;;;;;;;28.20;34.65;101781.41;5110984;27;20092;-69
2022/05/07 08:26:27;;;;;;;10.48;6.10;;;;;;;28.54;29.20;101773.13;5110239;28;20097;-69
2022/05/07 08:28:55;;;;;;;14.98;5.55;;;;;;;27.39;30.95;101780.38;5108867;27;20044;-69
2022/05/07 08:31:23;;;;;;;8.93;5.28;;;;;;;27.00;31.36;101771.97;5109672;28;20120;-69
2022/05/07 08:33:49;;;;;;;11.38;5.45;;;;;;;26.53;33.40;101774.19;5102009;28;20146;-70
2022/05/07 08:36:16;;;;;;;8.40;5.20;;;;;;;25.80;35.11;101778.06;5109955;28;20063;-70
2022/05/07 08:38:43;;;;;;;17.23;7.30;;;;;;;25.44;37.89;101782.50;5106912;27;20044;-70
2022/05/07 08:41:11;;;;;;;20.67;8.02;;;;;;;25.99;38.06;101784.13;5109375;27;20172;-70
2022/05/07 08:43:38;;;;;;;15.88;7.30;;;;;;;26.08;33.87;101774.31;5110397;27;20047;-70
2022/05/07 08:46:10;;;;;;;12.88;6.72;;;;;;;26.56;37.45;101777.41;5110085;28;20047;-70
2022/05/07 08:48:39;;;;;;;12.43;5.75;;;;;;;26.35;35.00;101784.16;5109187;27;20479;-69
2022/05/07 08:51:05;;;;;;;12.70;6.32;;;;;;;27.02;32.98;101770.81;5109045;27;20043;-70
2022/05/07 08:53:32;;;;;;;12.15;6.05;;;;;;;27.30;31.93;101771.44;5109921;28;20120;-70
2022/05/07 08:55:58;;;;;;;24.42;7.05;;;;;;;27.60;34.50;101777.28;5110415;27;20051;-70
2022/05/07 08:58:24;;;;;;;14.07;6.60;;;;;;;27.18;33.50;101778.13;5110378;28;20400;-70
2022/05/07 09:00:51;;;;;;;20.60;9.52;;;;;;;26.83;37.34;101779.09;5108419;28;20123;-70
2022/05/07 09:03:19;;;;;;;14.05;6.20;;;;;;;26.65;36.81;101778.28;5109731;28;20068;-70
2022/05/07 09:05:45;;;;;;;14.52;6.90;;;;;;;26.45;32.80;101774.13;5109262;28;20043;-70
2022/05/07 09:08:12;;;;;;;11.63;6.35;;;;;;;26.75;38.58;101786.28;5109274;27;20035;-70
2022/05/07 09:10:40;;;;;;;15.00;6.10;;;;;;;26.43;34.32;101782.34;5109043;27;20078;-70
2022/05/07 09:13:12;;;;;;;15.32;7.72;;;;;;;26.63;37.55;101778.47;5109808;27;20063;-70
2022/05/07 09:15:49;;;;;;;12.88;6.45;;;;;;;26.67;35.98;101783.53;5108504;28;20101;-70
2022/05/07 09:18:18;;;;;;;41.30;10.05;;;;;;;26.58;36.89;101777.25;5108011;27;20047;-69
2022/05/07 09:20:57;;;;;;;52.95;7.47;;;;;;;25.99;35.45;101783.28;5108927;27;20499;-69
2022/05/07 09:23:42;;;;;;;18.63;6.22;;;;;;;25.83;37.19;101778.59;5109339;27;20048;-70
2022/05/07 09:26:08;;;;;;;22.77;6.22;;;;;;;25.75;35.83;101781.22;5109802;28;20092;-69
2022/05/07 09:28:35;;;;;;;46.00;6.80;;;;;;;26.12;39.24;101784.59;5109108;28;20101;-69
2022/05/07 09:31:02;;;;;;;30.27;6.00;;;;;;;26.74;35.72;101774.66;5105117;27;20040;-69
2022/05/07 09:33:33;;;;;;;28.80;5.80;;;;;;;27.01;36.47;101770.97;5109251;28;20403;-70
2022/05/07 09:36:10;;;;;;;22.17;5.03;;;;;;;26.79;33.72;101775.00;5107813;28;20039;-70
2022/05/07 09:38:37;;;;;;;16.48;5.28;;;;;;;26.60;34.74;101768.03;5108393;27;20047;-69
2022/05/07 09:41:03;;;;;;;7.93;4.70;;;;;;;26.35;32.45;101770.72;5105180;27;20411;-69
2022/05/07 09:43:31;;;;;;;11.48;4.50;;;;;;;26.35;34.92;101773.41;5088129;28;20097;-69
2022/05/07 09:45:58;;;;;;;9.25;5.07;;;;;;;26.44;34.50;101767.06;5108833;28;20044;-69
2022/05/07 09:48:25;;;;;;;8.80;3.88;;;;;;;26.33;34.43;101765.47;5108029;27;20078;-70
2022/05/07 09:50:51;;;;;;;7.50;4.75;;;;;;;26.37;37.16;101761.47;5108242;27;20163;-70
2022/05/07 09:58:51;;;;;;;7.75;5.38;;;;;;;27.22;34.06;101762.47;5120901;27;20094;-69
2022/05/07 10:01:28;;;;;;;14.23;5.78;;;;;;;27.86;37.55;101762.66;5107651;28;21266;-69
2022/05/07 10:04:06;;;;;;;9.32;5.32;;;;;;;28.73;37.01;101753.03;5108627;27;20104;-69
2022/05/07 10:06:50;;;;;;;9.57;5.50;;;;;;;28.85;33.56;101744.41;5101438;28;20044;-69
2022/05/07 10:09:28;;;;;;;8.93;5.05;;;;;;;28.45;30.90;101749.88;5107682;27;20044;-70
2022/05/07 10:11:56;;;;;;;11.13;5.20;;;;;;;27.70;33.27;101751.88;5095242;28;20036;-70
2022/05/07 10:14:26;;;;;;;8.13;5.43;;;;;;;27.26;32.14;101758.44;5108905;28;20480;-69
2022/05/07 10:16:58;;;;;;;11.52;5.90;;;;;;;27.64;31.96;101757.09;5107655;28;20043;-70
2022/05/07 10:19:34;;;;;;;8.60;5.40;;;;;;;27.46;31.65;101759.88;5107804;27;20059;-70
2022/05/07 10:22:00;;;;;;;14.27;5.40;;;;;;;26.89;32.09;101750.72;5105182;27;20130;-70
2022/05/07 10:24:28;;;;;;;16.48;6.40;;;;;;;27.17;31.11;101754.03;5115345;27;20066;-70
2022/05/07 10:26:54;;;;;;;9.18;5.18;;;;;;;27.53;34.83;101750.16;5108909;27;20055;-69
2022/05/07 10:29:21;;;;;;;6.60;4.25;;;;;;;27.76;35.98;101745.81;5107211;28;20047;-71
2022/05/07 10:31:48;;;;;;;8.45;5.00;;;;;;;27.67;32.58;101736.03;5107657;28;20130;-70
2022/05/07 10:34:24;;;;;;;10.38;4.90;;;;;;;27.39;32.89;101743.50;5108797;28;20052;-69
2022/05/07 10:37:00;;;;;;;8.32;5.22;;;;;;;26.70;31.87;101729.41;5107598;27;21579;-71
2022/05/07 10:39:28;;;;;;;15.23;5.50;;;;;;;26.32;35.20;101744.09;5108375;27;20036;-69
2022/05/07 10:41:54;;;;;;;12.98;5.63;;;;;;;26.44;36.22;101742.84;5108160;28;20063;-71
2022/05/07 10:44:31;;;;;;;13.38;5.28;;;;;;;26.23;37.54;101732.47;5109121;28;20543;-72
2022/05/07 10:47:09;;;;;;;11.32;5.90;;;;;;;26.02;35.97;101746.19;5088066;28;20032;-72
2022/05/07 10:49:35;;;;;;;9.85;6.05;;;;;;;25.41;36.91;101740.72;5105105;27;20040;-73
2022/05/07 10:52:04;;;;;;;15.07;6.32;;;;;;;24.89;38.39;101739.56;5105657;28;20093;-73
2022/05/07 10:54:32;;;;;;;13.43;5.50;;;;;;;24.88;38.24;101742.38;5107836;28;20047;-72
2022/05/07 10:56:59;;;;;;;15.13;5.50;;;;;;;24.86;37.99;101739.03;5109484;28;20055;-73
2022/05/07 10:59:27;;;;;;;10.20;5.47;;;;;;;25.16;37.68;101738.75;5108364;28;20044;-72
2022/05/07 11:02:04;;;;;;;9.75;5.20;;;;;;;25.28;38.44;101742.03;5127049;27;20069;-72
2022/05/07 11:04:30;;;;;;;8.07;4.88;;;;;;;25.36;37.10;101736.78;5118364;27;20047;-73
2022/05/07 11:06:57;;;;;;;9.70;4.82;;;;;;;25.07;37.15;101745.00;5103637;28;20048;-73
2022/05/07 11:09:25;;;;;;;11.68;5.00;;;;;;;24.98;39.54;101740.53;5106991;27;20134;-72
2022/05/07 11:11:54;;;;;;;9.80;5.15;;;;;;;24.80;38.53;101737.72;5108182;27;20044;-70
2022/05/07 11:14:23;;;;;;;9.82;5.55;;;;;;;25.12;41.30;101732.81;5108576;28;20039;-71
2022/05/07 11:16:50;;;;;;;13.38;5.65;;;;;;;25.51;40.59;101735.25;5110830;27;20049;-71
2022/05/07 11:19:27;;;;;;;9.77;5.32;;;;;;;25.79;36.95;101738.78;5111347;27;20045;-71
2022/05/07 11:21:54;;;;;;;15.98;5.80;;;;;;;25.96;35.50;101733.38;5106437;27;20039;-71
2022/05/07 11:24:21;;;;;;;12.35;5.10;;;;;;;26.11;36.59;101734.53;5110779;28;20100;-71
2022/05/07 11:26:53;;;;;;;7.22;4.90;;;;;;;26.20;35.01;101727.38;5110542;27;20538;-71
2022/05/07 11:29:20;;;;;;;7.65;5.30;;;;;;;26.36;35.79;101726.66;5111048;28;20047;-70
2022/05/07 11:31:55;;;;;;;9.80;5.25;;;;;;;26.28;36.02;101731.97;5110846;28;20043;-71
2022/05/07 11:34:29;;;;;;;10.15;5.40;;;;;;;26.42;36.47;101728.75;5111415;27;20104;-71
2022/05/07 11:36:56;;;;;;;10.00;4.90;;;;;;;26.36;36.43;101730.19;5111482;27;20483;-71
2022/05/07 11:39:23;;;;;;;5.63;4.43;;;;;;;26.28;37.50;101734.66;5111706;27;20073;-71
2022/05/07 11:41:55;;;;;;;9.25;4.80;;;;;;;26.07;38.25;101730.47;5124875;27;20046;-70
2022/05/07 11:47:06;;;;;;;7.57;4.97;;;;;;;26.31;34.63;101723.63;5076374;27;20046;-69
2022/05/07 11:49:34;;;;;;;10.25;4.90;;;;;;;26.11;36.45;101723.78;5110460;27;20097;-73
2022/05/07 11:52:08;;;;;;;7.70;4.63;;;;;;;25.98;36.31;101730.53;5109702;27;20121;-70
2022/05/07 11:54:34;;;;;;;10.65;4.95;;;;;;;25.95;37.42;101722.78;5089886;28;20454;-70